Time;durP1;ratioP1;P1;durP2;ratioP2;P2;SDS_P1;SDS_P2;PMS_P1;PMS_P2;Temp;Humidity;BMP_temperature;BMP_pressure;BME280_temperature;BME280_humidity;BME280_pressure;Samples;Min_cycle;Max_cycle;Signal;HPM_P1;HPM_P2
2023/09/09 00:02:21;;;;;;;12.73;11.60;;;;;;;20.93;86.39;156746.09;5026583;28;20793;-81
2023/09/09 00:04:47;;;;;;;11.93;10.83;;;;;;;20.91;86.41;156739.56;4981528;28;20579;-81
2023/09/09 00:07:14;;;;;;;13.10;11.70;;;;;;;20.89;86.69;156734.38;4984257;28;20536;-81
2023/09/09 00:09:41;;;;;;;12.27;11.00;;;;;;;20.85;86.90;156723.91;4960646;28;20903;-81
2023/09/09 00:12:09;;;;;;;12.13;10.93;;;;;;;20.82;86.79;156717.38;4982069;28;20882;-81
2023/09/09 00:14:37;;;;;;;12.63;11.37;;;;;;;20.79;87.08;156708.22;4954937;28;20462;-81
2023/09/09 00:17:04;;;;;;;12.30;11.20;;;;;;;20.76;86.86;156700.44;4989814;28;20826;-81
2023/09/09 00:19:34;;;;;;;13.03;11.73;;;;;;;20.75;87.31;156697.81;4960415;28;20477;-81
2023/09/09 00:22:01;;;;;;;13.30;11.90;;;;;;;20.74;87.45;156696.50;4976395;28;20794;-81
2023/09/09 00:24:27;;;;;;;11.73;10.73;;;;;;;20.72;87.56;156689.97;4968448;28;20871;-81
2023/09/09 00:26:55;;;;;;;12.27;11.10;;;;;;;20.69;87.43;156682.16;4973647;28;20466;-81
2023/09/09 00:29:23;;;;;;;12.07;10.93;;;;;;;20.70;87.59;156684.78;4973164;28;20460;-81
2023/09/09 00:31:50;;;;;;;12.60;11.30;;;;;;;20.67;87.72;156678.25;4972302;28;20465;-81
2023/09/09 00:34:17;;;;;;;13.03;11.83;;;;;;;20.63;87.68;156669.09;4954983;28;20849;-81
2023/09/09 00:36:43;;;;;;;12.50;11.20;;;;;;;20.61;88.25;156663.91;4955689;28;20507;-81
2023/09/09 00:39:10;;;;;;;13.60;11.67;;;;;;;20.58;88.04;156656.06;4995113;28;20492;-81
2023/09/09 00:41:37;;;;;;;13.43;11.83;;;;;;;20.56;88.33;156650.84;4952428;28;20450;-81
2023/09/09 00:44:04;;;;;;;12.67;11.47;;;;;;;20.55;88.37;156646.91;4977489;28;20468;-81
2023/09/09 00:46:32;;;;;;;11.63;10.60;;;;;;;20.52;88.79;156640.41;4962918;28;20453;-81
2023/09/09 00:49:00;;;;;;;12.17;10.97;;;;;;;20.49;88.51;156631.28;4974067;28;20481;-81
2023/09/09 00:51:27;;;;;;;12.10;10.90;;;;;;;20.47;88.98;156627.34;4969519;28;20445;-81
2023/09/09 00:53:53;;;;;;;13.77;12.47;;;;;;;20.45;89.10;156620.84;4971684;28;20466;-81
2023/09/09 00:56:20;;;;;;;13.77;12.47;;;;;;;20.42;89.31;156613.00;4980794;28;20982;-81
2023/09/09 00:58:47;;;;;;;13.27;12.07;;;;;;;20.37;89.66;156599.97;5001756;28;21033;-81
2023/09/09 01:01:13;;;;;;;13.57;12.30;;;;;;;20.37;89.40;156601.28;4954403;28;20449;-81
2023/09/09 01:03:41;;;;;;;12.73;11.53;;;;;;;20.34;89.84;156592.13;4972325;28;20456;-80
2023/09/09 01:06:08;;;;;;;13.40;12.00;;;;;;;20.30;90.07;156583.03;4973182;28;20481;-81
2023/09/09 01:08:35;;;;;;;13.10;11.90;;;;;;;20.26;90.02;156572.56;4962864;28;20458;-81
2023/09/09 01:11:02;;;;;;;12.20;11.10;;;;;;;20.22;90.44;156562.13;4965462;28;20548;-80
2023/09/09 01:13:29;;;;;;;12.63;11.27;;;;;;;20.21;90.65;156559.50;4977246;28;20536;-80
2023/09/09 01:15:56;;;;;;;12.73;11.50;;;;;;;20.19;91.12;156552.97;4979486;28;20787;-81
2023/09/09 01:18:23;;;;;;;13.07;11.50;;;;;;;20.15;91.17;156543.81;4975004;28;20824;-81
2023/09/09 01:20:58;;;;;;;12.20;11.00;;;;;;;20.13;91.12;156538.63;4974943;28;20844;-80
2023/09/09 01:23:26;;;;;;;12.70;11.50;;;;;;;20.16;91.43;156546.44;4995844;28;20460;-81
2023/09/09 01:25:52;;;;;;;12.50;11.30;;;;;;;20.14;91.23;156539.94;4973525;28;20933;-81
2023/09/09 01:28:22;;;;;;;12.93;11.53;;;;;;;20.13;91.84;156538.63;4986935;28;20822;-81
2023/09/09 01:30:48;;;;;;;11.97;10.87;;;;;;;20.13;91.99;156538.63;4958771;28;20468;-81
2023/09/09 01:33:15;;;;;;;13.20;11.80;;;;;;;20.10;91.61;156529.47;4989552;28;20822;-81
2023/09/09 01:35:42;;;;;;;14.60;12.23;;;;;;;20.07;91.80;156522.94;4976862;28;20896;-81
2023/09/09 01:38:08;;;;;;;12.70;11.60;;;;;;;20.05;92.16;156517.75;4969280;28;20461;-81
2023/09/09 01:40:36;;;;;;;12.47;11.20;;;;;;;20.05;91.96;156517.75;4965652;28;20503;-81
2023/09/09 01:43:03;;;;;;;14.90;12.30;;;;;;;20.05;92.32;156517.75;4987676;28;21092;-81
2023/09/09 01:45:30;;;;;;;12.97;11.77;;;;;;;20.06;92.50;156520.38;4975051;28;20952;-81
2023/09/09 01:47:57;;;;;;;13.10;11.80;;;;;;;20.03;92.67;156513.88;4992447;28;20457;-81
2023/09/09 01:50:23;;;;;;;13.87;12.47;;;;;;;20.01;92.93;156507.34;4968239;28;20465;-81
2023/09/09 01:52:50;;;;;;;13.80;12.37;;;;;;;19.98;93.13;156499.50;4973475;28;20508;-81
2023/09/09 01:55:17;;;;;;;14.20;11.77;;;;;;;19.94;93.36;156489.06;4972366;28;20870;-81
2023/09/09 01:57:46;;;;;;;15.73;12.13;;;;;;;19.91;93.36;156481.22;4987529;28;20442;-81
2023/09/09 02:00:13;;;;;;;13.50;12.27;;;;;;;19.87;93.40;156470.81;4968925;28;21016;-81
2023/09/09 02:02:39;;;;;;;14.20;12.70;;;;;;;19.85;93.39;156465.63;4972136;28;20876;-81
2023/09/09 02:05:07;;;;;;;13.27;11.90;;;;;;;19.78;93.88;156448.63;4958093;28;20476;-81
2023/09/09 02:07:33;;;;;;;13.37;11.77;;;;;;;19.73;94.75;156435.59;4975042;28;20463;-81
2023/09/09 02:10:00;;;;;;;15.27;13.77;;;;;;;19.71;94.72;156429.09;4994296;28;20538;-81
2023/09/09 02:12:28;;;;;;;14.50;13.07;;;;;;;19.66;95.11;156416.06;5013550;28;20445;-81
2023/09/09 02:14:56;;;;;;;14.63;12.40;;;;;;;19.60;95.48;156401.72;4956491;28;20540;-80
2023/09/09 02:17:23;;;;;;;14.60;13.30;;;;;;;19.58;95.63;156395.19;4996695;28;20798;-81
2023/09/09 02:19:54;;;;;;;14.13;12.73;;;;;;;19.55;95.96;156387.38;4974522;28;20865;-80
2023/09/09 02:22:21;;;;;;;14.30;13.00;;;;;;;19.52;96.39;156379.53;4974467;28;20949;-81
2023/09/09 02:24:48;;;;;;;13.90;12.70;;;;;;;19.48;96.44;156369.13;4969890;28;21212;-81
2023/09/09 02:27:15;;;;;;;15.83;14.33;;;;;;;19.44;96.56;156361.31;4977037;28;20433;-81
2023/09/09 02:29:41;;;;;;;18.93;17.10;;;;;;;19.41;96.85;156353.47;4957232;28;20976;-80
2023/09/09 02:32:09;;;;;;;19.57;17.57;;;;;;;19.39;96.99;156348.28;4963006;28;21073;-80
2023/09/09 02:34:36;;;;;;;21.30;18.93;;;;;;;19.40;97.13;156349.59;4957541;28;20520;-80
2023/09/09 02:37:16;;;;;;;20.97;18.97;;;;;;;19.42;96.89;156356.09;5000722;28;20448;-80
2023/09/09 02:39:43;;;;;;;20.30;17.17;;;;;;;19.46;96.46;156363.94;4953569;28;20491;-81
2023/09/09 02:42:12;;;;;;;17.33;15.67;;;;;;;19.44;96.96;156361.31;4975120;28;20452;-80
2023/09/09 02:44:38;;;;;;;16.90;15.10;;;;;;;19.39;97.03;156348.28;4968391;28;20473;-80
2023/09/09 02:47:06;;;;;;;16.20;14.37;;;;;;;19.39;97.37;156348.28;4985150;28;20838;-81
2023/09/09 02:49:34;;;;;;;17.83;15.93;;;;;;;19.36;97.11;156340.41;4953948;28;21038;-80
2023/09/09 02:52:01;;;;;;;15.37;13.93;;;;;;;19.35;97.60;156337.78;4988370;28;20438;-81
2023/09/09 02:54:28;;;;;;;15.30;13.70;;;;;;;19.34;97.86;156335.19;4959451;28;20815;-80
2023/09/09 02:56:54;;;;;;;15.80;14.10;;;;;;;19.30;98.20;156324.75;4973441;28;20445;-81
2023/09/09 02:59:21;;;;;;;15.97;14.47;;;;;;;19.31;98.46;156327.38;4966101;28;20477;-81
2023/09/09 03:01:47;;;;;;;15.07;13.57;;;;;;;19.31;98.35;156326.06;4972723;28;20464;-80
2023/09/09 03:04:14;;;;;;;16.07;14.33;;;;;;;19.27;98.71;156315.66;4978016;28;20490;-81
2023/09/09 03:06:42;;;;;;;15.27;13.87;;;;;;;19.23;99.37;156306.53;4984928;28;20480;-81
2023/09/09 03:09:10;;;;;;;15.93;13.83;;;;;;;19.21;99.31;156300.00;4989990;28;20469;-81
2023/09/09 03:11:36;;;;;;;15.87;14.23;;;;;;;19.21;99.49;156300.00;4975514;28;20454;-80
2023/09/09 03:14:03;;;;;;;16.07;14.53;;;;;;;19.22;99.17;156302.63;4984709;28;20949;-81
2023/09/09 03:16:29;;;;;;;16.90;15.20;;;;;;;19.23;99.14;156305.19;4973057;28;20663;-80
2023/09/09 03:18:56;;;;;;;16.10;14.60;;;;;;;19.24;99.36;156307.84;4972352;28;20557;-80
2023/09/09 03:21:24;;;;;;;15.23;13.83;;;;;;;19.22;99.54;156303.88;5000508;28;20571;-80
2023/09/09 03:23:52;;;;;;;15.80;14.30;;;;;;;19.17;99.95;156290.88;4976867;28;20458;-80
2023/09/09 03:26:19;;;;;;;16.30;14.80;;;;;;;19.15;100.00;156284.34;4977611;28;20501;-81
2023/09/09 03:28:46;;;;;;;17.10;15.30;;;;;;;19.09;100.00;156270.00;4955943;28;20451;-80
2023/09/09 03:31:13;;;;;;;16.20;14.60;;;;;;;19.09;100.00;156268.75;4976492;28;20471;-81
2023/09/09 03:33:40;;;;;;;17.20;15.50;;;;;;;19.08;100.00;156267.44;4973163;28;20442;-81
2023/09/09 03:36:07;;;;;;;16.17;14.57;;;;;;;19.06;100.00;156260.91;4971570;28;20469;-80
2023/09/09 03:38:34;;;;;;;18.13;16.43;;;;;;;19.04;100.00;156255.66;4958796;28;20460;-75
2023/09/09 03:41:04;;;;;;;17.73;14.97;;;;;;;19.03;100.00;156254.41;4991719;28;20469;-72
2023/09/09 03:43:31;;;;;;;15.77;14.17;;;;;;;19.03;100.00;156254.41;4995221;28;20536;-71
2023/09/09 03:45:58;;;;;;;16.57;14.60;;;;;;;19.03;100.00;156254.41;4966734;28;20465;-71
2023/09/09 03:48:25;;;;;;;16.80;15.00;;;;;;;19.00;100.00;156246.59;4968292;28;20541;-71
2023/09/09 03:50:52;;;;;;;18.13;16.33;;;;;;;18.98;100.00;156241.38;4971812;28;20826;-71
2023/09/09 03:53:19;;;;;;;17.70;15.67;;;;;;;18.96;100.00;156234.81;4968012;28;20457;-71
2023/09/09 03:55:45;;;;;;;14.80;13.40;;;;;;;18.93;100.00;156228.31;4959643;28;20504;-71
2023/09/09 03:58:13;;;;;;;16.80;15.00;;;;;;;18.94;100.00;156229.63;4986845;28;20493;-71
2023/09/09 04:00:46;;;;;;;17.03;15.27;;;;;;;18.90;100.00;156220.53;4989199;28;20469;-71
2023/09/09 04:03:13;;;;;;;18.33;16.53;;;;;;;18.89;100.00;156217.91;4968302;28;20540;-72
2023/09/09 04:05:40;;;;;;;16.40;14.90;;;;;;;18.90;100.00;156219.22;4967364;28;20489;-72
2023/09/09 04:08:09;;;;;;;16.30;14.70;;;;;;;18.90;100.00;156220.53;4948939;28;20581;-72
2023/09/09 04:10:35;;;;;;;16.00;14.40;;;;;;;18.92;100.00;156224.41;4988938;28;20482;-72
2023/09/09 04:13:02;;;;;;;17.20;15.40;;;;;;;18.90;100.00;156219.22;4993972;28;20456;-72
2023/09/09 04:15:30;;;;;;;17.60;15.70;;;;;;;18.89;100.00;156216.59;4967854;28;20472;-72
2023/09/09 04:17:57;;;;;;;17.07;15.33;;;;;;;18.84;100.00;156204.88;4970830;28;20449;-72
2023/09/09 04:20:24;;;;;;;15.80;14.40;;;;;;;18.80;100.00;156195.75;4954499;28;20509;-72
2023/09/09 04:22:50;;;;;;;16.40;14.70;;;;;;;18.77;100.00;156186.66;4987639;28;20942;-72
2023/09/09 04:25:17;;;;;;;18.17;16.37;;;;;;;18.74;100.00;156178.84;4953264;28;20543;-72
2023/09/09 04:27:44;;;;;;;17.33;15.17;;;;;;;18.71;100.00;156172.31;4969305;28;20496;-72
2023/09/09 04:30:12;;;;;;;17.63;15.93;;;;;;;18.71;100.00;156171.00;4953707;28;20548;-72
2023/09/09 04:32:40;;;;;;;16.40;14.70;;;;;;;18.69;100.00;156165.81;4988066;28;20446;-72
2023/09/09 04:35:07;;;;;;;17.63;15.83;;;;;;;18.69;100.00;156167.06;4959547;28;20485;-71
2023/09/09 04:37:33;;;;;;;16.73;15.10;;;;;;;18.69;100.00;156165.81;4988258;28;20449;-71
2023/09/09 04:40:00;;;;;;;16.13;14.53;;;;;;;18.69;100.00;156167.06;4970257;28;20517;-72
2023/09/09 04:42:27;;;;;;;16.53;14.87;;;;;;;18.68;100.00;156164.50;4954331;28;20823;-72
2023/09/09 04:44:55;;;;;;;16.70;15.07;;;;;;;18.65;100.00;156156.66;4970595;28;20446;-72
2023/09/09 04:47:21;;;;;;;16.50;14.80;;;;;;;18.65;100.00;156155.38;4973888;28;20445;-72
2023/09/09 04:49:49;;;;;;;16.27;14.63;;;;;;;18.64;100.00;156152.75;4973919;28;20670;-72
2023/09/09 04:52:16;;;;;;;16.47;14.73;;;;;;;18.61;100.00;156146.22;4975061;28;20448;-71
2023/09/09 04:54:43;;;;;;;17.27;15.53;;;;;;;18.59;100.00;156141.03;4972955;28;20573;-72
2023/09/09 04:57:10;;;;;;;16.60;15.00;;;;;;;18.58;100.00;156138.44;4970106;28;20461;-72
2023/09/09 04:59:38;;;;;;;18.10;16.40;;;;;;;18.58;100.00;156137.13;4974442;28;20464;-72
2023/09/09 05:02:04;;;;;;;17.83;16.10;;;;;;;18.57;100.00;156135.84;4974868;28;20480;-72
2023/09/09 05:04:31;;;;;;;17.23;15.43;;;;;;;18.58;100.00;156137.13;4946772;28;20486;-72
2023/09/09 05:06:59;;;;;;;18.40;16.47;;;;;;;18.58;100.00;156137.13;4949900;28;21012;-72
2023/09/09 05:09:27;;;;;;;17.60;15.73;;;;;;;18.58;100.00;156137.13;4962765;28;20817;-72
2023/09/09 05:11:53;;;;;;;17.20;15.60;;;;;;;18.59;100.00;156139.72;4982727;28;20455;-72
2023/09/09 05:14:20;;;;;;;17.67;15.97;;;;;;;18.59;100.00;156139.72;4963363;28;20473;-71
2023/09/09 05:16:47;;;;;;;15.80;14.20;;;;;;;18.62;100.00;156147.53;4964392;28;20540;-72
2023/09/09 05:19:13;;;;;;;16.30;14.70;;;;;;;18.62;100.00;156147.53;4964370;28;20966;-72
2023/09/09 05:21:40;;;;;;;14.43;13.07;;;;;;;18.61;100.00;156144.97;4970306;28;20519;-71
2023/09/09 05:24:08;;;;;;;16.43;14.83;;;;;;;18.65;100.00;156155.38;4979427;28;20453;-72
2023/09/09 05:26:35;;;;;;;15.73;14.17;;;;;;;18.66;100.00;156158.00;4977533;28;20449;-72
2023/09/09 05:29:02;;;;;;;18.10;14.97;;;;;;;18.63;100.00;156151.47;4968590;28;20468;-72
2023/09/09 05:31:28;;;;;;;17.53;14.53;;;;;;;18.63;100.00;156150.16;4963907;28;20453;-72
2023/09/09 05:33:55;;;;;;;17.13;15.43;;;;;;;18.63;100.00;156151.47;4947311;28;20508;-71
2023/09/09 05:36:21;;;;;;;16.23;14.27;;;;;;;18.63;100.00;156150.16;4944907;28;20461;-71
2023/09/09 05:38:48;;;;;;;16.13;14.63;;;;;;;18.64;100.00;156152.75;4963043;28;20466;-71
2023/09/09 05:41:16;;;;;;;16.23;14.73;;;;;;;18.67;100.00;156160.56;4980944;28;20477;-71
2023/09/09 05:43:43;;;;;;;17.50;15.90;;;;;;;18.72;100.00;156173.59;4962900;28;20458;-72
2023/09/09 05:46:10;;;;;;;19.83;17.73;;;;;;;18.75;100.00;156182.72;4963225;28;20465;-71
2023/09/09 05:48:37;;;;;;;17.73;15.87;;;;;;;18.80;100.00;156195.75;4961613;28;20461;-71
2023/09/09 05:51:03;;;;;;;16.47;14.97;;;;;;;18.85;100.00;156207.47;4961597;28;20454;-71
2023/09/09 05:53:30;;;;;;;16.23;14.73;;;;;;;18.90;100.00;156220.53;4946610;28;20458;-71
2023/09/09 05:55:57;;;;;;;18.57;16.77;;;;;;;18.99;100.00;156243.97;4964516;28;20548;-71
2023/09/09 05:58:25;;;;;;;16.90;15.27;;;;;;;19.13;100.00;156280.47;4959005;28;20446;-72
2023/09/09 06:00:51;;;;;;;17.90;16.20;;;;;;;19.34;100.00;156333.88;4961948;28;20484;-72
2023/09/09 06:03:18;;;;;;;16.10;14.60;;;;;;;19.59;100.00;156397.81;4979667;28;20549;-72
2023/09/09 06:05:45;;;;;;;16.70;15.07;;;;;;;19.79;100.00;156449.94;4975106;28;20576;-72
2023/09/09 06:08:12;;;;;;;15.83;14.20;;;;;;;20.00;100.00;156504.72;4961777;28;20453;-72
2023/09/09 06:10:39;;;;;;;16.73;14.93;;;;;;;20.22;99.81;156562.13;4977817;28;20470;-72
2023/09/09 06:13:05;;;;;;;15.47;13.93;;;;;;;20.43;98.66;156615.63;4977915;28;20503;-72
2023/09/09 06:15:34;;;;;;;16.70;14.90;;;;;;;20.65;97.40;156673.03;4961487;28;20466;-72
2023/09/09 06:18:01;;;;;;;16.67;15.00;;;;;;;20.84;95.64;156721.28;4977770;28;20461;-72
2023/09/09 06:20:27;;;;;;;15.23;13.70;;;;;;;21.06;95.29;156780.06;4959783;28;21285;-72
2023/09/09 06:22:54;;;;;;;15.20;13.80;;;;;;;21.26;93.57;156830.94;4976814;28;20461;-72
2023/09/09 06:25:21;;;;;;;15.17;13.57;;;;;;;21.47;92.62;156885.75;4959672;28;20455;-72
2023/09/09 06:27:47;;;;;;;15.57;14.07;;;;;;;21.68;91.67;156939.31;4974394;28;20496;-72
2023/09/09 06:30:14;;;;;;;15.83;14.33;;;;;;;21.85;90.04;156983.69;4975579;28;20466;-72
2023/09/09 06:32:42;;;;;;;15.83;14.37;;;;;;;21.96;89.46;157012.47;4978677;28;20465;-72
2023/09/09 06:35:09;;;;;;;15.47;13.97;;;;;;;22.16;88.80;157063.41;4957495;28;20939;-72
2023/09/09 06:37:36;;;;;;;14.47;13.07;;;;;;;22.32;87.54;157105.16;4975949;28;20552;-72
2023/09/09 06:40:02;;;;;;;15.30;13.80;;;;;;;22.52;86.92;157157.44;4978477;28;20823;-72
2023/09/09 06:42:29;;;;;;;15.67;14.07;;;;;;;22.66;86.11;157194.09;4977987;28;20600;-72
2023/09/09 06:45:00;;;;;;;15.20;13.80;;;;;;;22.81;84.99;157233.25;4978161;28;20462;-72
2023/09/09 06:47:26;;;;;;;15.03;13.53;;;;;;;22.96;84.47;157272.44;4980097;28;20533;-72
2023/09/09 06:49:54;;;;;;;14.17;12.80;;;;;;;23.12;83.86;157311.63;4960153;28;20995;-72
2023/09/09 06:52:21;;;;;;;14.50;13.10;;;;;;;23.30;82.73;157358.72;4979410;28;20489;-72
2023/09/09 06:54:47;;;;;;;14.83;13.33;;;;;;;23.45;82.56;157397.97;4979716;28;20468;-72
2023/09/09 06:57:14;;;;;;;13.77;12.57;;;;;;;23.61;82.00;157441.13;4979842;28;20560;-72
2023/09/09 06:59:40;;;;;;;13.93;12.63;;;;;;;23.79;81.10;157486.88;4978741;28;20990;-72
2023/09/09 07:02:07;;;;;;;13.20;12.00;;;;;;;23.95;80.79;157528.69;4978469;28;20482;-72
2023/09/09 07:04:33;;;;;;;13.70;12.40;;;;;;;24.12;80.27;157573.19;4977536;28;20498;-72
2023/09/09 07:07:01;;;;;;;13.17;11.97;;;;;;;24.21;79.58;157596.75;4980579;28;20454;-72
2023/09/09 07:09:28;;;;;;;13.03;11.83;;;;;;;24.41;79.45;157646.47;4976366;28;20454;-72
2023/09/09 07:11:54;;;;;;;13.43;12.17;;;;;;;24.58;78.43;157690.91;4978255;28;20446;-72
2023/09/09 07:14:21;;;;;;;12.63;11.63;;;;;;;24.71;78.14;157724.91;4976753;28;20465;-72
2023/09/09 07:16:48;;;;;;;14.37;12.20;;;;;;;24.83;77.91;157757.66;4962645;28;20464;-72
2023/09/09 07:19:14;;;;;;;12.60;11.40;;;;;;;25.07;76.48;157819.16;4961250;28;20564;-72
2023/09/09 07:21:41;;;;;;;12.93;11.73;;;;;;;25.15;76.48;157840.09;4978412;28;20489;-72
2023/09/09 07:24:09;;;;;;;13.27;11.87;;;;;;;25.19;76.00;157850.59;4978369;28;20853;-72
2023/09/09 07:26:35;;;;;;;12.80;11.50;;;;;;;25.39;75.59;157902.91;4977252;28;20461;-72
2023/09/09 07:29:03;;;;;;;13.67;12.37;;;;;;;25.47;74.70;157922.56;4976229;28;20466;-73
2023/09/09 07:31:29;;;;;;;12.30;11.10;;;;;;;25.50;74.58;157929.13;4975566;28;20496;-73
2023/09/09 07:33:56;;;;;;;12.00;10.90;;;;;;;25.56;75.18;157944.84;4977075;28;20927;-72
2023/09/09 07:36:23;;;;;;;11.67;10.67;;;;;;;25.68;74.46;157976.28;4965761;28;20465;-72
2023/09/09 07:38:49;;;;;;;14.97;11.33;;;;;;;25.72;74.25;157986.72;4975443;28;20910;-72
2023/09/09 07:41:17;;;;;;;12.53;11.40;;;;;;;25.84;73.94;158019.44;4971208;28;20462;-72
2023/09/09 07:43:44;;;;;;;11.13;10.13;;;;;;;25.97;73.89;158053.47;4976292;28;20450;-72
2023/09/09 07:46:11;;;;;;;12.53;11.33;;;;;;;26.10;73.30;158084.94;4959434;28;20900;-72
2023/09/09 07:48:37;;;;;;;12.00;10.90;;;;;;;26.24;72.42;158122.94;4977417;28;20451;-72
2023/09/09 07:51:04;;;;;;;13.10;11.60;;;;;;;26.29;72.14;158134.75;4974269;28;20461;-72
2023/09/09 07:53:30;;;;;;;13.27;12.13;;;;;;;26.40;71.78;158164.84;4959796;28;20531;-72
2023/09/09 07:55:57;;;;;;;11.60;10.43;;;;;;;26.45;71.51;158176.66;4977556;28;20445;-72
2023/09/09 07:58:25;;;;;;;12.20;11.10;;;;;;;26.57;71.54;158208.06;4977262;28;20456;-72
2023/09/09 08:00:58;;;;;;;12.00;10.77;;;;;;;26.69;71.25;158239.50;4961025;28;20923;-72
2023/09/09 08:03:25;;;;;;;12.40;11.23;;;;;;;26.78;71.16;158263.13;4976446;28;20994;-73
2023/09/09 08:05:54;;;;;;;11.37;10.37;;;;;;;26.91;70.60;158295.88;4975563;28;21021;-72
2023/09/09 08:08:22;;;;;;;11.87;10.63;;;;;;;27.11;69.35;158348.31;4973846;28;20462;-72
2023/09/09 08:10:49;;;;;;;11.50;10.50;;;;;;;27.12;69.19;158350.91;4975071;28;20465;-72
2023/09/09 08:13:16;;;;;;;12.40;11.07;;;;;;;27.04;70.30;158329.94;4976560;28;20457;-72
2023/09/09 08:15:44;;;;;;;10.93;10.03;;;;;;;27.02;69.55;158326.03;4976075;28;20945;-72
2023/09/09 08:18:10;;;;;;;13.37;11.40;;;;;;;27.04;69.65;158331.25;4978591;28;20969;-72
2023/09/09 08:20:37;;;;;;;12.50;11.30;;;;;;;27.18;70.16;158366.63;4966437;28;20453;-72
2023/09/09 08:23:04;;;;;;;12.00;10.90;;;;;;;27.29;69.37;158395.47;4974358;28;20470;-72
2023/09/09 08:25:32;;;;;;;13.50;12.27;;;;;;;27.38;69.35;158419.03;4974956;28;20816;-72
2023/09/09 08:27:59;;;;;;;13.37;12.17;;;;;;;27.42;67.25;158429.59;4962885;28;20460;-71
2023/09/09 08:30:26;;;;;;;12.00;11.00;;;;;;;27.59;67.24;158474.13;4973999;28;20841;-72
2023/09/09 08:32:53;;;;;;;12.93;11.83;;;;;;;27.75;67.15;158514.75;4976228;28;20466;-72
2023/09/09 08:35:20;;;;;;;12.13;11.03;;;;;;;27.73;67.90;158510.84;4976127;28;20458;-71
2023/09/09 08:37:48;;;;;;;11.80;10.50;;;;;;;27.67;68.86;158495.09;4978196;28;20464;-83
2023/09/09 08:40:14;;;;;;;12.43;11.30;;;;;;;27.65;68.37;158489.88;4956397;28;20505;-83
2023/09/09 08:42:52;;;;;;;13.40;11.40;;;;;;;27.63;67.92;158484.63;4959941;28;20967;-83
2023/09/09 08:45:23;;;;;;;12.47;11.37;;;;;;;27.79;67.92;158525.25;4960640;28;20470;-81
2023/09/09 08:47:51;;;;;;;14.30;12.30;;;;;;;27.82;67.83;158533.13;4975666;28;20453;-84
2023/09/09 08:50:41;;;;;;;11.73;10.63;;;;;;;27.61;67.91;158479.41;4975476;28;20458;-83
2023/09/09 08:53:08;;;;;;;12.83;11.57;;;;;;;27.27;68.63;158388.94;4974911;28;20469;-83
2023/09/09 08:55:46;;;;;;;12.40;11.30;;;;;;;26.98;70.12;158315.53;4964545;28;20450;-83
2023/09/09 08:58:19;;;;;;;11.80;10.73;;;;;;;27.09;70.59;158344.34;4960866;28;20457;-82
2023/09/09 09:00:46;;;;;;;12.17;11.00;;;;;;;27.22;69.76;158377.09;4961284;28;20468;-82
2023/09/09 09:03:15;;;;;;;13.13;11.10;;;;;;;27.43;69.62;158432.19;4980793;28;20485;-83
2023/09/09 09:05:46;;;;;;;14.10;11.87;;;;;;;27.51;68.83;158453.16;4977811;28;20842;-83
2023/09/09 09:08:12;;;;;;;12.33;11.30;;;;;;;27.47;69.29;158441.38;4961197;28;20460;-84
2023/09/09 09:10:40;;;;;;;12.77;11.67;;;;;;;27.57;68.77;158468.91;4978113;28;20501;-84
2023/09/09 09:13:07;;;;;;;13.73;12.33;;;;;;;27.61;68.25;158479.41;4978932;28;20457;-83
2023/09/09 09:15:36;;;;;;;13.73;12.57;;;;;;;27.62;67.88;158480.69;4978061;28;20461;-84
2023/09/09 09:18:02;;;;;;;12.97;11.77;;;;;;;27.64;68.00;158487.22;4978466;28;20954;-84
2023/09/09 09:20:31;;;;;;;13.77;11.53;;;;;;;27.68;66.46;158497.75;4964040;28;20461;-84
2023/09/09 09:23:01;;;;;;;15.97;11.43;;;;;;;27.62;66.58;158482.00;4979150;28;20477;-84
2023/09/09 09:25:28;;;;;;;12.87;11.73;;;;;;;27.65;67.78;158488.53;4976427;28;20457;-84
2023/09/09 09:27:58;;;;;;;12.20;11.10;;;;;;;27.62;68.11;158482.00;4947252;28;20460;-84
2023/09/09 09:30:26;;;;;;;12.63;11.37;;;;;;;27.53;67.25;158458.44;4980731;28;20555;-84
2023/09/09 09:32:53;;;;;;;14.23;12.83;;;;;;;27.55;67.11;158463.66;4968898;28;20482;-84
2023/09/09 09:35:25;;;;;;;12.53;11.33;;;;;;;27.62;67.50;158482.00;4965497;28;20463;-84
2023/09/09 09:37:53;;;;;;;12.40;11.40;;;;;;;27.56;67.31;158466.25;4981641;28;20462;-84
2023/09/09 09:40:21;;;;;;;13.63;12.53;;;;;;;27.41;67.52;158425.63;4964353;28;20556;-84
2023/09/09 09:42:48;;;;;;;14.40;11.57;;;;;;;27.40;68.51;158423.03;4963741;28;20474;-82
2023/09/09 09:45:15;;;;;;;12.80;11.67;;;;;;;27.43;68.54;158432.19;4981480;28;20472;-84
2023/09/09 09:47:43;;;;;;;13.23;11.90;;;;;;;27.39;68.69;158421.69;4981745;28;20456;-84
2023/09/09 09:50:28;;;;;;;;;;;;;;;;;;;;;
2023/09/09 09:53:01;;;;;;;12.90;11.70;;;;;;;27.30;67.03;158398.06;4981274;28;20503;-84
2023/09/09 09:55:33;;;;;;;11.77;10.77;;;;;;;27.17;66.95;158365.31;4981312;28;20863;-84
2023/09/09 09:58:01;;;;;;;14.57;12.10;;;;;;;27.27;67.19;158390.19;4978717;28;20528;-84
2023/09/09 10:00:31;;;;;;;11.97;10.97;;;;;;;27.25;65.70;158383.66;4960423;28;20473;-84
2023/09/09 10:03:00;;;;;;;13.10;11.90;;;;;;;27.14;66.50;158357.44;4973604;28;20485;-84
2023/09/09 10:05:28;;;;;;;12.23;10.97;;;;;;;27.11;64.75;158348.31;4975008;28;20502;-84
2023/09/09 10:07:59;;;;;;;12.53;11.47;;;;;;;27.16;68.18;158361.41;4977035;28;20678;-83
2023/09/09 10:10:26;;;;;;;12.47;11.27;;;;;;;27.20;67.77;158371.88;4962933;28;20500;-82
2023/09/09 10:12:59;;;;;;;12.83;11.83;;;;;;;27.13;67.08;158353.53;4989991;28;20478;-83
2023/09/09 10:15:27;;;;;;;12.90;11.60;;;;;;;27.09;68.52;158343.03;4944794;28;20518;-83
2023/09/09 10:17:54;;;;;;;13.40;12.13;;;;;;;27.13;68.09;158353.53;4961130;28;20812;-84
2023/09/09 10:20:26;;;;;;;12.67;11.47;;;;;;;27.11;66.66;158348.31;4961694;28;20459;-83
2023/09/09 10:22:59;;;;;;;12.87;11.67;;;;;;;27.19;66.46;158370.56;4961715;28;20470;-83
2023/09/09 10:25:26;;;;;;;13.33;11.93;;;;;;;27.18;65.71;158366.63;4962548;28;20449;-83
2023/09/09 10:27:54;;;;;;;12.77;11.67;;;;;;;27.10;66.13;158345.69;4960486;28;20542;-83
2023/09/09 10:30:22;;;;;;;12.77;11.47;;;;;;;27.18;65.57;158366.63;4958344;28;20458;-83
2023/09/09 10:32:50;;;;;;;12.33;11.33;;;;;;;27.32;65.12;158403.34;4974221;28;20463;-83
2023/09/09 10:35:18;;;;;;;12.67;11.43;;;;;;;27.40;64.16;158424.38;4961736;28;20558;-83
2023/09/09 10:37:46;;;;;;;12.23;11.23;;;;;;;27.34;63.84;158408.56;4961847;28;20867;-83
2023/09/09 10:40:15;;;;;;;11.77;10.77;;;;;;;27.35;64.44;158411.16;4956806;28;20541;-83
2023/09/09 10:42:47;;;;;;;10.90;9.90;;;;;;;27.40;63.74;158423.03;4957484;28;20496;-84
2023/09/09 10:45:27;;;;;;;11.33;10.43;;;;;;;27.48;62.97;158445.28;4958764;28;20469;-83
2023/09/09 10:47:58;;;;;;;11.50;10.50;;;;;;;27.24;63.42;158382.38;4941738;28;20461;-82
2023/09/09 10:50:39;;;;;;;11.63;10.63;;;;;;;27.34;64.20;158408.56;4973177;28;20886;-82
2023/09/09 10:53:17;;;;;;;12.47;11.47;;;;;;;27.49;63.88;158447.94;4958917;28;20499;-83
2023/09/09 10:55:44;;;;;;;12.37;11.37;;;;;;;27.55;63.97;158463.66;4964379;28;20838;-83
2023/09/09 10:58:10;;;;;;;11.87;10.67;;;;;;;27.65;63.16;158488.53;4959242;28;20482;-83
2023/09/09 11:00:41;;;;;;;11.10;10.07;;;;;;;27.62;61.95;158482.00;4957835;28;20455;-82
2023/09/09 11:03:12;;;;;;;12.20;11.20;;;;;;;27.56;62.71;158465.00;4973397;28;20516;-82
2023/09/09 11:06:04;;;;;;;11.70;10.70;;;;;;;27.54;63.60;158461.03;4957389;28;20486;-83
2023/09/09 11:08:38;;;;;;;12.90;11.80;;;;;;;27.52;63.42;158455.78;4976765;28;20505;-83
2023/09/09 11:11:07;;;;;;;10.40;9.50;;;;;;;27.68;62.93;158497.75;4958354;28;20478;-83
2023/09/09 11:13:41;;;;;;;11.20;10.23;;;;;;;27.68;64.12;158497.75;4961560;28;20449;-83